Time;durP1;ratioP1;P1;durP2;ratioP2;P2;SDS_P1;SDS_P2;PMS_P1;PMS_P2;Temp;Humidity;BMP_temperature;BMP_pressure;BME280_temperature;BME280_humidity;BME280_pressure;Samples;Min_cycle;Max_cycle;Signal;HPM_P1;HPM_P2
2022/02/10 00:24:51;;;;;;;37.38;23.67;;;230.40;1766.40;;;;;;5022957;28;20053;-62
2022/02/10 00:36:00;;;;;;;32.60;21.05;;;205.70;1766.40;;;;;;5033033;28;20075;-61
2022/02/10 00:38:32;;;;;;;32.55;20.30;;;205.70;1766.40;;;;;;5033125;28;20038;-58
2022/02/10 00:41:03;;;;;;;35.17;21.00;;;205.70;1766.40;;;;;;5032696;28;20474;-57
2022/02/10 00:43:32;;;;;;;31.40;20.35;;;205.70;1766.40;;;;;;5032443;28;20029;-57
2022/02/10 00:46:03;;;;;;;35.05;21.58;;;205.70;1766.40;;;;;;5032761;28;20096;-58
2022/02/10 00:48:34;;;;;;;33.17;22.10;;;205.70;1766.40;;;;;;5032713;28;20034;-62
2022/02/10 00:51:03;;;;;;;32.60;21.52;;;230.40;1766.40;;;;;;5032549;28;20120;-57
2022/02/10 00:53:33;;;;;;;32.08;19.98;;;230.40;1766.40;;;;;;5032965;28;20414;-62
2022/02/10 00:56:03;;;;;;;35.40;21.75;;;230.40;1766.40;;;;;;5032744;28;20183;-62
2022/02/10 00:58:37;;;;;;;29.40;21.08;;;230.50;1766.40;;;;;;5042596;28;20044;-63
2022/02/10 01:31:16;;;;;;;30.50;18.40;;;230.60;1766.40;;;;;;5057679;28;20031;-62
2022/02/10 01:33:47;;;;;;;26.13;16.55;;;230.70;1740.80;;;;;;5094176;28;20106;-57
2022/02/10 01:36:17;;;;;;;29.05;17.25;;;230.70;1740.80;;;;;;5093929;28;20017;-56
2022/02/10 01:38:48;;;;;;;29.65;17.27;;;230.70;1740.80;;;;;;5094108;28;20050;-57
2022/02/10 01:42:04;;;;;;;28.98;16.67;;;230.70;1740.80;;;;;;5094343;28;20013;-60
2022/02/10 02:03:17;;;;;;;28.63;17.10;;;230.80;1740.80;;;;;;5093994;28;20034;-57
2022/02/10 02:04:21;;;;;;;27.85;17.25;;;230.70;1766.40;;;;;;5094408;28;20498;-58
2022/02/10 02:06:55;;;;;;;23.02;15.70;;;230.60;1766.40;;;;;;5093524;28;20119;-57
2022/02/10 02:09:26;;;;;;;23.58;15.43;;;230.60;1766.40;;;;;;5093500;28;20024;-58
2022/02/10 02:11:58;;;;;;;25.17;15.40;;;230.60;1766.40;;;;;;5093853;28;20118;-64
2022/02/10 02:14:30;;;;;;;23.65;15.45;;;230.60;1766.40;;;;;;5094248;28;20058;-60
2022/02/10 02:17:06;;;;;;;27.10;15.77;;;230.60;1766.40;;;;;;5093377;28;20165;-57
2022/02/10 02:19:35;;;;;;;27.90;16.30;;;230.60;1766.40;;;;;;5093628;28;20028;-58
2022/02/10 02:22:08;;;;;;;21.52;15.35;;;230.60;1766.40;;;;;;5093957;28;20029;-58
2022/02/10 02:24:39;;;;;;;21.67;14.07;;;230.50;1792.00;;;;;;5093912;28;20069;-62
2022/02/10 02:27:15;;;;;;;23.13;15.27;;;230.50;1766.40;;;;;;5093248;28;20032;-61
2022/02/10 02:29:56;;;;;;;23.90;14.95;;;230.50;1766.40;;;;;;5093289;28;20347;-58
2022/02/10 02:32:35;;;;;;;24.95;15.18;;;230.50;1766.40;;;;;;5093288;28;20586;-58
2022/02/10 02:35:41;;;;;;;27.13;15.68;;;230.50;1766.40;;;;;;5093358;28;20028;-60
2022/02/10 03:06:36;;;;;;;39.78;24.63;;;205.60;1766.40;;;;;;5096895;28;20039;-61
2022/02/10 03:09:20;;;;;;;38.90;22.88;;;205.60;1766.40;;;;;;5097051;28;20036;-56
2022/02/10 03:11:51;;;;;;;29.58;18.17;;;205.60;1766.40;;;;;;5097036;28;20403;-60
2022/02/10 03:14:35;;;;;;;29.75;17.83;;;205.60;1766.40;;;;;;5096803;28;20021;-56
2022/02/10 03:23:01;;;;;;;27.13;17.08;;;205.50;1766.40;;;;;;5096782;28;20412;-56
2022/02/10 04:19:40;;;;;;;30.65;21.83;;;205.30;1766.40;;;;;;5095646;28;20059;-58
2022/02/10 04:30:29;;;;;;;53.10;23.80;;;205.30;1817.60;;;;;;5095526;28;20051;-60
2022/02/10 04:57:30;;;;;;;109.95;56.38;;;230.70;1715.20;;;;;;5103265;28;19904;-57
2022/02/10 05:35:51;;;;;;;47.70;30.83;;;205.60;1689.60;;;;;;4992650;28;20037;-62
2022/02/10 05:38:28;;;;;;;49.42;31.70;;;205.40;1715.20;;;;;;4992354;28;20034;-57
2022/02/10 07:07:29;;;;;;;60.13;39.65;;;205.20;1766.40;;;;;;5076678;28;20032;-62
2022/02/10 07:46:57;;;;;;;43.73;28.13;;;230.40;1766.40;;;;;;5102845;28;20035;-57
2022/02/10 08:54:50;;;;;;;38.03;22.10;;;282.50;1817.60;;;;;;5032842;28;20124;-59
2022/02/10 08:57:22;;;;;;;35.55;22.77;;;307.20;1843.20;;;;;;5040906;28;20047;-61
2022/02/10 09:25:17;;;;;;;37.28;16.05;;;333.00;1792.00;;;;;;5074095;28;20047;-59
2022/02/10 10:01:02;;;;;;;46.85;26.45;;;358.60;1689.60;;;;;;5011802;28;20065;-58
2022/02/10 10:03:41;;;;;;;41.78;25.83;;;358.70;1664.00;;;;;;5012156;28;20057;-59
2022/02/10 10:06:21;;;;;;;30.98;19.23;;;358.80;1664.00;;;;;;5011742;28;20029;-58
2022/02/10 10:09:13;;;;;;;29.73;17.98;;;358.90;1638.40;;;;;;5011700;28;20081;-61
2022/02/10 10:15:16;;;;;;;23.67;13.18;;;359.10;1638.40;;;;;;5011915;28;20111;-63
2022/02/10 10:49:54;;;;;;;18.98;11.30;;;384.80;1459.20;;;;;;5020247;28;20040;-59
2022/02/10 10:55:12;;;;;;;25.23;11.90;;;409.60;1484.80;;;;;;5018427;28;20033;-63
2022/02/10 10:57:49;;;;;;;25.05;14.88;;;409.60;1484.80;;;;;;5011168;28;20434;-59
2022/02/10 11:01:08;;;;;;;49.63;28.75;;;409.70;1484.80;;;;;;5011145;28;20113;-62
2022/02/10 11:04:26;;;;;;;44.92;21.00;;;409.80;1484.80;;;;;;5070089;28;20145;-63
2022/02/10 11:41:30;;;;;;;21.30;10.57;;;435.20;1356.80;;;;;;5096414;28;20020;-62
2022/02/10 12:36:40;;;;;;;22.77;8.60;;;435.80;1280.00;;;;;;5095160;28;20486;-62
2022/02/10 14:13:48;;;;;;;25.08;12.20;;;436.10;1254.40;;;;;;5114146;28;20028;-62
2022/02/10 14:16:37;;;;;;;25.05;12.10;;;460.80;1280.00;;;;;;5114094;28;20028;-60
2022/02/10 14:19:16;;;;;;;19.10;9.70;;;436.10;1254.40;;;;;;5114040;28;20454;-60
2022/02/10 14:27:28;;;;;;;21.88;9.60;;;436.00;1280.00;;;;;;5114065;28;20047;-59
2022/02/10 14:30:00;;;;;;;15.43;7.80;;;435.90;1280.00;;;;;;5113767;28;20027;-61
2022/02/10 14:32:34;;;;;;;23.13;8.77;;;436.00;1280.00;;;;;;5113764;28;20249;-59
2022/02/10 15:17:15;;;;;;;42.25;14.13;;;435.60;1305.60;;;;;;5117346;28;20046;-59
2022/02/10 15:46:00;;;;;;;34.45;12.93;;;410.30;1382.40;;;;;;5116859;28;20407;-60
2022/02/10 16:18:47;;;;;;;122.40;41.72;;;359.20;1510.40;;;;;;4943787;28;20019;-63
2022/02/10 16:24:29;;;;;;;118.70;48.50;;;359.00;1510.40;;;;;;4942932;29;20119;-59
2022/02/10 16:27:23;;;;;;;127.80;49.05;;;359.00;1536.00;;;;;;4944793;29;20094;-63
2022/02/10 16:30:01;;;;;;;122.22;46.72;;;358.90;1536.00;;;;;;4942295;28;20035;-61
2022/02/10 16:32:32;;;;;;;103.82;46.15;;;358.80;1536.00;;;;;;4939159;29;20066;-60
2022/02/10 16:35:03;;;;;;;139.02;55.90;;;358.60;1536.00;;;;;;4940078;29;20106;-60
2022/02/10 16:37:34;;;;;;;137.13;63.53;;;358.60;1561.60;;;;;;4940868;29;20024;-62
2022/02/10 16:40:02;;;;;;;149.02;69.28;;;358.60;1587.20;;;;;;4981279;28;20166;-63
2022/02/10 16:42:32;;;;;;;169.38;72.70;;;358.50;1561.60;;;;;;5093902;28;20059;-60
2022/02/10 16:45:00;;;;;;;146.77;69.05;;;358.40;1587.20;;;;;;5103079;28;20027;-61
2022/02/10 16:47:27;;;;;;;164.00;78.80;;;333.70;1587.20;;;;;;5099288;28;20092;-61
2022/02/10 16:50:00;;;;;;;196.07;91.68;;;333.60;1587.20;;;;;;5094935;28;20107;-59
2022/02/10 16:52:38;;;;;;;190.18;86.30;;;333.50;1612.80;;;;;;5094697;28;20032;-60
2022/02/10 16:55:34;;;;;;;194.63;88.60;;;333.50;1612.80;;;;;;5094718;28;20095;-63
2022/02/10 16:58:27;;;;;;;;;;;333.30;1638.40;;;;;;5095206;28;20517;-60
2022/02/10 17:25:36;;;;;;;225.02;105.72;;;308.00;1638.40;;;;;;5094449;28;20085;-63
2022/02/10 17:28:07;;;;;;;212.05;112.10;;;308.00;1638.40;;;;;;5093984;28;20123;-63
2022/02/10 17:33:38;;;;;;;212.07;109.30;;;307.90;1664.00;;;;;;5094420;28;20119;-60
2022/02/10 17:36:24;;;;;;;220.55;110.63;;;307.80;1638.40;;;;;;5094075;28;20454;-63
2022/02/10 17:52:16;;;;;;;225.73;110.97;;;307.80;1638.40;;;;;;5093871;28;20080;-62
2022/02/10 17:54:44;;;;;;;258.50;135.07;;;307.80;1638.40;;;;;;5084802;28;20104;-64
2022/02/10 17:57:16;;;;;;;286.27;140.35;;;307.80;1638.40;;;;;;5093263;28;20031;-60
2022/02/10 17:59:48;;;;;;;266.70;138.00;;;307.70;1638.40;;;;;;5093294;28;20107;-59
2022/02/10 18:02:19;;;;;;;243.13;117.75;;;307.70;1638.40;;;;;;5093682;28;20077;-58
2022/02/10 18:04:49;;;;;;;240.85;120.78;;;307.70;1664.00;;;;;;5093595;28;20028;-66
2022/02/10 18:07:15;;;;;;;239.77;118.57;;;307.80;1638.40;;;;;;5093274;28;20531;-63
2022/02/10 18:15:35;;;;;;;214.20;107.15;;;307.80;1612.80;;;;;;5037793;28;20055;-59
2022/02/10 18:18:10;;;;;;;209.88;107.47;;;307.80;1612.80;;;;;;5037647;28;20037;-60
2022/02/10 18:20:40;;;;;;;207.70;106.90;;;307.80;1612.80;;;;;;5037816;28;20523;-64
2022/02/10 18:23:20;;;;;;;198.63;102.10;;;307.80;1612.80;;;;;;5037713;28;20026;-65
2022/02/10 18:33:26;;;;;;;173.25;93.55;;;307.70;1587.20;;;;;;5037824;28;20026;-64
2022/02/10 18:54:31;;;;;;;144.95;81.53;;;307.60;1612.80;;;;;;5037691;28;20511;-66
2022/02/10 19:06:44;;;;;;;108.28;55.10;;;282.50;1612.80;;;;;;5120599;28;20124;-66
2022/02/10 19:09:09;;;;;;;100.93;52.55;;;282.40;1612.80;;;;;;5110600;28;20056;-59
2022/02/10 19:11:39;;;;;;;93.82;51.10;;;282.30;1612.80;;;;;;5108029;28;20398;-68
2022/02/10 19:14:07;;;;;;;97.90;52.17;;;282.30;1612.80;;;;;;5108506;28;20419;-68
2022/02/10 19:16:35;;;;;;;173.13;78.70;;;282.20;1612.80;;;;;;5109501;28;20068;-66
2022/02/10 19:19:04;;;;;;;162.05;77.13;;;282.20;1612.80;;;;;;5110154;28;20032;-67
2022/02/10 19:21:33;;;;;;;176.50;85.43;;;282.20;1612.80;;;;;;5106377;28;20012;-68
2022/02/10 19:23:59;;;;;;;326.63;145.32;;;282.00;1612.80;;;;;;5104975;28;20019;-59
2022/02/10 19:26:27;;;;;;;332.63;151.73;;;282.10;1612.80;;;;;;5107144;28;20093;-67
2022/02/10 19:28:53;;;;;;;245.10;116.82;;;282.10;1612.80;;;;;;5105224;28;20137;-61
2022/02/10 19:31:27;;;;;;;232.30;113.40;;;282.20;1612.80;;;;;;5105248;28;20043;-66
2022/02/10 19:33:57;;;;;;;217.90;109.32;;;282.20;1612.80;;;;;;5105982;28;20011;-68
2022/02/10 19:36:29;;;;;;;203.68;103.15;;;282.20;1612.80;;;;;;5114813;28;20020;-63
2022/02/10 19:38:58;;;;;;;145.27;78.82;;;282.20;1612.80;;;;;;5116955;28;20016;-68
2022/02/10 19:41:32;;;;;;;171.57;92.65;;;282.10;1587.20;;;;;;5097358;28;20023;-66
2022/02/10 19:44:04;;;;;;;155.52;86.03;;;282.10;1612.80;;;;;;5105925;28;20031;-65
2022/02/10 19:46:30;;;;;;;149.25;82.78;;;282.00;1612.80;;;;;;5104921;28;20031;-65
2022/02/10 19:48:57;;;;;;;129.80;74.70;;;282.00;1612.80;;;;;;5103580;28;20059;-66
2022/02/10 19:51:24;;;;;;;133.27;76.35;;;282.00;1612.80;;;;;;5101244;28;20021;-65
2022/02/10 19:53:56;;;;;;;140.55;76.82;;;282.00;1612.80;;;;;;5086117;28;20027;-67
2022/02/10 19:56:28;;;;;;;120.18;67.28;;;282.00;1612.80;;;;;;5105544;28;20102;-66
2022/02/10 19:58:57;;;;;;;109.10;61.13;;;282.00;1587.20;;;;;;5104977;28;20119;-65
2022/02/10 20:01:28;;;;;;;93.90;56.10;;;282.00;1612.80;;;;;;5100708;28;20024;-64
2022/02/10 20:04:01;;;;;;;90.70;54.70;;;281.90;1587.20;;;;;;5096947;28;20019;-65
2022/02/10 20:06:32;;;;;;;104.07;58.55;;;282.00;1612.80;;;;;;5095666;28;20039;-65
2022/02/10 20:09:02;;;;;;;102.00;55.80;;;282.00;1587.20;;;;;;5095220;28;20389;-65
2022/02/10 20:11:38;;;;;;;94.40;54.05;;;282.00;1587.20;;;;;;5095591;28;20503;-64
2022/02/10 20:14:09;;;;;;;95.80;55.78;;;282.10;1587.20;;;;;;5095533;28;20028;-68
2022/02/10 20:16:38;;;;;;;133.57;84.47;;;282.00;1561.60;;;;;;5100231;28;20076;-65
2022/02/10 20:19:08;;;;;;;149.52;92.72;;;282.10;1587.20;;;;;;5101575;28;20374;-65
2022/02/10 20:21:39;;;;;;;149.85;88.65;;;281.90;1561.60;;;;;;5103390;28;20027;-67
2022/02/10 20:24:10;;;;;;;136.90;74.38;;;281.90;1561.60;;;;;;5100803;28;20526;-66
2022/02/10 20:26:43;;;;;;;140.57;76.13;;;281.80;1612.80;;;;;;5115505;28;20042;-67
2022/02/10 20:29:15;;;;;;;133.80;74.15;;;281.70;1587.20;;;;;;5115578;28;20378;-68
2022/02/10 20:31:44;;;;;;;130.65;71.25;;;281.70;1587.20;;;;;;5115872;28;20043;-67
2022/02/10 20:34:17;;;;;;;167.63;89.13;;;281.60;1587.20;;;;;;5115314;28;20416;-64
2022/02/10 20:36:48;;;;;;;212.55;108.38;;;281.60;1587.20;;;;;;5115713;28;20016;-64
2022/02/10 20:39:25;;;;;;;190.55;96.90;;;281.60;1587.20;;;;;;5115557;28;20432;-64
2022/02/10 20:42:04;;;;;;;177.70;94.55;;;256.90;1561.60;;;;;;5115379;28;20020;-68
2022/02/10 20:44:37;;;;;;;151.88;81.93;;;256.90;1561.60;;;;;;5115531;28;20346;-67
2022/02/10 20:47:06;;;;;;;144.73;79.78;;;256.80;1561.60;;;;;;5115496;28;20016;-64
2022/02/10 20:49:37;;;;;;;132.48;73.10;;;256.80;1561.60;;;;;;5115351;28;20038;-63
2022/02/10 20:52:09;;;;;;;108.85;61.13;;;256.90;1561.60;;;;;;5115396;28;20024;-64
2022/02/10 20:54:41;;;;;;;93.32;56.28;;;256.90;1561.60;;;;;;5115372;28;20039;-63
2022/02/10 20:57:17;;;;;;;82.82;48.50;;;256.90;1561.60;;;;;;5114930;28;20031;-63
2022/02/10 20:59:47;;;;;;;76.55;42.35;;;281.60;1587.20;;;;;;5115150;28;20031;-63
2022/02/10 21:02:28;;;;;;;71.18;41.42;;;256.90;1561.60;;;;;;5115037;28;20051;-62
2022/02/10 21:05:16;;;;;;;66.43;39.30;;;256.90;1561.60;;;;;;5114913;28;20532;-67
2022/02/10 21:07:58;;;;;;;59.22;36.80;;;256.90;1561.60;;;;;;5114976;28;20047;-62
2022/02/10 21:10:28;;;;;;;66.50;40.30;;;281.60;1587.20;;;;;;5115056;28;20107;-68
2022/02/10 21:13:00;;;;;;;71.63;38.17;;;256.90;1536.00;;;;;;5114492;28;20087;-62
2022/02/10 21:15:39;;;;;;;68.55;40.03;;;256.90;1536.00;;;;;;5114742;28;20027;-64
2022/02/10 21:18:12;;;;;;;98.95;49.65;;;281.80;1689.60;;;;;;5114999;28;20074;-62
2022/02/10 21:20:45;;;;;;;88.47;48.03;;;281.80;1587.20;;;;;;5114853;28;20084;-64
2022/02/10 21:23:27;;;;;;;90.78;47.92;;;281.80;1587.20;;;;;;5114767;28;20023;-62
2022/02/10 21:26:01;;;;;;;103.25;53.03;;;281.80;1561.60;;;;;;5114867;28;20023;-68
2022/02/10 21:28:38;;;;;;;102.07;54.60;;;281.90;1561.60;;;;;;5114921;28;20067;-62
2022/02/10 21:31:10;;;;;;;116.68;53.63;;;281.90;1561.60;;;;;;5114259;28;20396;-61
2022/02/10 21:34:03;;;;;;;96.30;52.58;;;281.90;1561.60;;;;;;5114631;28;20147;-62
2022/02/10 21:39:29;;;;;;;86.35;45.90;;;281.80;1536.00;;;;;;5114456;28;20011;-61
2022/02/10 21:47:59;;;;;;;68.30;37.58;;;281.80;1536.00;;;;;;5113858;28;20038;-62
2022/02/10 22:23:24;;;;;;;118.20;63.92;;;281.70;1510.40;;;;;;5114156;28;20508;-60
2022/02/10 22:25:58;;;;;;;181.57;91.18;;;282.30;2073.60;;;;;;5113807;28;20072;-59
2022/02/10 22:36:46;;;;;;;203.80;107.45;;;282.20;1945.60;;;;;;5113788;28;20046;-65
2022/02/10 22:39:18;;;;;;;200.45;112.15;;;282.30;1664.00;;;;;;5113544;28;20062;-64
2022/02/10 22:41:48;;;;;;;188.45;101.43;;;282.10;1587.20;;;;;;5113816;28;20423;-64
2022/02/10 22:44:17;;;;;;;145.43;83.85;;;281.90;1561.60;;;;;;5113642;28;20409;-64
2022/02/10 22:46:47;;;;;;;126.28;74.28;;;281.70;1561.60;;;;;;5113682;28;20024;-65
2022/02/10 22:49:19;;;;;;;135.13;77.13;;;281.60;1561.60;;;;;;5113399;28;20031;-64
2022/02/10 22:51:48;;;;;;;124.18;71.55;;;256.90;1536.00;;;;;;5113692;28;20534;-64
2022/02/10 22:54:16;;;;;;;127.32;73.63;;;256.80;1510.40;;;;;;5113813;28;20031;-64
2022/02/10 22:56:49;;;;;;;119.57;67.60;;;256.80;1510.40;;;;;;5113658;28;20502;-64
2022/02/10 22:59:16;;;;;;;116.47;65.78;;;256.70;1536.00;;;;;;5115882;28;20024;-64
2022/02/10 23:01:48;;;;;;;110.68;65.82;;;256.80;1536.00;;;;;;5117553;28;20489;-64
2022/02/10 23:04:19;;;;;;;122.82;71.07;;;256.90;1510.40;;;;;;5117379;28;20023;-64
2022/02/10 23:06:57;;;;;;;120.97;71.50;;;256.90;1510.40;;;;;;5117164;28;20094;-65
2022/02/10 23:09:38;;;;;;;121.13;70.18;;;256.90;1484.80;;;;;;5117223;28;20131;-64
2022/02/10 23:12:11;;;;;;;95.88;56.25;;;256.90;1484.80;;;;;;5117290;28;20350;-64
2022/02/10 23:14:45;;;;;;;84.22;48.50;;;256.90;1484.80;;;;;;5117080;28;20568;-64
2022/02/10 23:17:12;;;;;;;83.80;46.47;;;256.90;1484.80;;;;;;5117072;28;20484;-64
2022/02/10 23:19:43;;;;;;;80.28;44.80;;;256.80;1484.80;;;;;;5117149;28;20032;-64
2022/02/10 23:22:13;;;;;;;96.00;51.67;;;256.80;1484.80;;;;;;5117151;28;20057;-64
2022/02/10 23:24:42;;;;;;;90.85;52.35;;;256.70;1484.80;;;;;;5117119;28;20084;-64
2022/02/10 23:27:13;;;;;;;88.93;48.67;;;256.50;1484.80;;;;;;5116374;28;20513;-64
2022/02/10 23:29:44;;;;;;;94.80;51.53;;;256.60;1484.80;;;;;;5116999;28;20028;-64
2022/02/10 23:32:11;;;;;;;85.53;49.00;;;256.40;1484.80;;;;;;5116639;28;20048;-64
2022/02/10 23:34:38;;;;;;;81.65;46.25;;;256.40;1484.80;;;;;;5116960;28;20039;-64
2022/02/10 23:37:09;;;;;;;78.55;43.90;;;256.40;1510.40;;;;;;5116858;28;20157;-63
2022/02/10 23:39:46;;;;;;;75.22;42.95;;;256.30;1510.40;;;;;;5116879;28;20076;-63
2022/02/10 23:42:27;;;;;;;80.13;44.08;;;256.20;1510.40;;;;;;5116578;28;20437;-64
2022/02/10 23:45:07;;;;;;;80.82;43.90;;;256.10;1484.80;;;;;;5116642;28;20047;-63
2022/02/10 23:47:38;;;;;;;83.25;46.00;;;256.00;1536.00;;;;;;5116507;28;20066;-63
2022/02/10 23:50:16;;;;;;;85.10;49.55;;;256.10;1510.40;;;;;;5116567;28;20023;-63
2022/02/10 23:52:52;;;;;;;86.40;47.10;;;256.00;1510.40;;;;;;5116622;28;20035;-63
2022/02/10 23:55:32;;;;;;;87.07;45.90;;;256.00;1510.40;;;;;;5116491;28;20047;-63
